Gardiner, Iowa
Current Conditions -  °F | °C
As of 10:55 AM on Friday 31 Oct 2014 (Local Time) from KPRO Reporting Station
Clear Clear  
Wind Chill: 25°   Ceiling: Unl
Heat Index: 34°   Visibility: 10mi
Dew Point: 20°   Wind: 14mph
Humidity: 57%   Direction: 10°N
Pressure: 30.53"   Gusts: 20mph
Location:  41.8185°N, 93.9933°W
Report Text: KPRO 311555Z AUTO 01012G17KT 10SM CLR 01/M07 A3053 RMK AO2 T00111066
Loading
Personal Weather Stations






























Interactive Weather Map
Tropical Storm Tracking
New forecast layout! Learn more

10-Day Weather Forecast

Advertisements
Track Severe Weather on mobile